Time;durP1;ratioP1;P1;durP2;ratioP2;P2;SDS_P1;SDS_P2;PMS_P1;PMS_P2;Temp;Humidity;BMP_temperature;BMP_pressure;BME280_temperature;BME280_humidity;BME280_pressure;Samples;Min_cycle;Max_cycle;Signal;HPM_P1;HPM_P2
2022/05/12 00:02:19;;;;;;;3.38;1.60;;;22.10;74.80;;;;;;7392413;19;20131;-77
2022/05/12 00:04:45;;;;;;;3.50;1.35;;;22.10;75.50;;;;;;7392499;19;20149;-74
2022/05/12 00:07:10;;;;;;;2.08;1.50;;;22.10;76.20;;;;;;7391914;19;20143;-78
2022/05/12 00:09:36;;;;;;;2.60;1.40;;;22.10;76.50;;;;;;7394979;19;20130;-79
2022/05/12 00:12:03;;;;;;;1.63;1.30;;;22.00;76.10;;;;;;7397666;19;20127;-78
2022/05/12 00:14:29;;;;;;;2.03;1.30;;;21.80;76.10;;;;;;7396674;19;20158;-75
2022/05/12 00:16:57;;;;;;;2.60;1.40;;;21.80;77.50;;;;;;7393534;19;20171;-75
2022/05/12 00:19:27;;;;;;;1.23;1.10;;;22.00;77.40;;;;;;7396830;19;20131;-75
2022/05/12 00:21:55;;;;;;;1.52;1.30;;;22.00;77.60;;;;;;7393032;19;20215;-79
2022/05/12 00:24:21;;;;;;;1.95;1.50;;;21.90;77.50;;;;;;7394554;19;20132;-77
2022/05/12 00:26:47;;;;;;;1.75;1.48;;;21.80;77.60;;;;;;7395471;19;20127;-75
2022/05/12 00:29:13;;;;;;;1.63;1.27;;;21.70;77.10;;;;;;7391527;19;20143;-75
2022/05/12 00:31:42;;;;;;;3.83;1.60;;;21.70;78.00;;;;;;7395399;19;20134;-79
2022/05/12 00:34:09;;;;;;;1.63;1.42;;;21.50;77.70;;;;;;7393533;19;20154;-77
2022/05/12 00:36:35;;;;;;;2.03;1.40;;;21.50;78.60;;;;;;7390167;19;20135;-75
2022/05/12 00:39:02;;;;;;;2.55;1.58;;;21.50;79.30;;;;;;7393505;19;20153;-75
2022/05/12 00:41:28;;;;;;;1.75;1.48;;;21.60;79.80;;;;;;7391766;19;20178;-78
2022/05/12 00:43:56;;;;;;;2.08;1.30;;;21.50;79.00;;;;;;7391700;19;20127;-78
2022/05/12 00:46:31;;;;;;;1.55;1.45;;;21.40;79.40;;;;;;7391247;19;20657;-74
2022/05/12 00:49:05;;;;;;;1.45;1.35;;;21.40;79.50;;;;;;7392608;19;20480;-78
2022/05/12 00:51:36;;;;;;;1.98;1.40;;;21.40;80.00;;;;;;7394717;19;20596;-74
2022/05/12 00:54:08;;;;;;;2.17;1.40;;;21.40;80.20;;;;;;7396758;19;20151;-74
2022/05/12 00:56:35;;;;;;;3.10;1.50;;;21.40;80.60;;;;;;7389174;19;20547;-73
2022/05/12 00:59:05;;;;;;;4.38;1.70;;;21.40;81.40;;;;;;7391350;19;20134;-77
2022/05/12 01:01:31;;;;;;;1.50;1.33;;;21.50;81.00;;;;;;7391081;19;20122;-79
2022/05/12 01:03:59;;;;;;;2.15;1.50;;;21.50;81.90;;;;;;7390738;19;20201;-78
2022/05/12 01:06:25;;;;;;;1.42;1.30;;;21.50;82.10;;;;;;7390152;19;20127;-74
2022/05/12 01:08:51;;;;;;;1.80;1.33;;;21.50;81.20;;;;;;7389360;19;20131;-75
2022/05/12 01:11:20;;;;;;;1.85;1.50;;;21.60;81.60;;;;;;7390459;19;20493;-75
2022/05/12 01:13:52;;;;;;;1.80;1.30;;;21.70;81.90;;;;;;7391001;19;20139;-78
2022/05/12 01:16:37;;;;;;;3.00;1.63;;;21.70;82.40;;;;;;7393795;19;20599;-75
2022/05/12 01:19:05;;;;;;;4.50;1.33;;;21.60;82.20;;;;;;7391707;19;20171;-78
2022/05/12 01:21:31;;;;;;;1.40;1.20;;;21.60;82.20;;;;;;7389428;19;20194;-74
2022/05/12 01:23:56;;;;;;;1.63;1.50;;;21.60;81.60;;;;;;7390206;19;20139;-75
2022/05/12 01:26:22;;;;;;;3.88;1.40;;;21.50;82.50;;;;;;7392904;19;20329;-75
2022/05/12 01:28:49;;;;;;;5.40;1.60;;;21.50;82.90;;;;;;7388518;19;20141;-74
2022/05/12 01:31:17;;;;;;;1.92;1.42;;;21.50;82.50;;;;;;7389720;19;20131;-77
2022/05/12 01:33:42;;;;;;;1.55;1.45;;;21.40;82.70;;;;;;7391775;19;20131;-76
2022/05/12 01:36:09;;;;;;;2.90;1.70;;;21.40;83.20;;;;;;7390908;19;20613;-75
2022/05/12 01:38:35;;;;;;;1.88;1.65;;;21.50;83.60;;;;;;7388607;19;20230;-75
2022/05/12 01:41:00;;;;;;;1.73;1.40;;;21.50;83.80;;;;;;7389913;19;20127;-75
2022/05/12 01:43:26;;;;;;;1.80;1.33;;;21.40;83.30;;;;;;7389624;19;20123;-75
2022/05/12 01:45:52;;;;;;;2.00;1.40;;;21.10;83.70;;;;;;7391351;19;20131;-75
2022/05/12 01:48:18;;;;;;;3.08;1.60;;;21.10;84.70;;;;;;7388403;19;20119;-79
2022/05/12 01:50:47;;;;;;;3.92;1.58;;;21.10;84.00;;;;;;7388571;19;20641;-77
2022/05/12 01:53:15;;;;;;;2.92;1.70;;;20.90;84.90;;;;;;7391218;19;20163;-76
2022/05/12 01:55:43;;;;;;;3.10;1.70;;;21.10;85.80;;;;;;7393192;19;20135;-75
2022/05/12 01:58:10;;;;;;;1.63;1.45;;;21.40;84.30;;;;;;7388112;19;20127;-79
2022/05/12 02:00:36;;;;;;;1.98;1.60;;;21.50;84.10;;;;;;7389836;19;20134;-78
2022/05/12 02:03:03;;;;;;;1.50;1.40;;;21.30;84.60;;;;;;7388801;19;20134;-79
2022/05/12 02:05:34;;;;;;;2.13;1.52;;;21.00;86.20;;;;;;7391270;19;20146;-75
2022/05/12 02:08:00;;;;;;;1.33;1.23;;;21.00;87.10;;;;;;7392762;19;20154;-78
2022/05/12 02:10:29;;;;;;;2.30;1.65;;;20.80;87.30;;;;;;7394259;19;20170;-78
2022/05/12 02:12:55;;;;;;;1.45;1.17;;;20.90;86.70;;;;;;7387711;19;20512;-75
2022/05/12 02:15:21;;;;;;;2.63;1.70;;;20.90;87.40;;;;;;7386761;19;20221;-79
2022/05/12 02:17:49;;;;;;;2.22;1.60;;;21.10;88.10;;;;;;7398349;19;20841;-75
2022/05/12 02:20:16;;;;;;;1.60;1.40;;;20.70;87.60;;;;;;7390077;19;20597;-79
2022/05/12 02:22:42;;;;;;;1.95;1.38;;;20.70;88.30;;;;;;7391300;19;20143;-75
2022/05/12 02:25:10;;;;;;;1.80;1.60;;;20.60;88.50;;;;;;7389395;19;20176;-75
2022/05/12 02:27:36;;;;;;;1.63;1.52;;;20.60;89.30;;;;;;7396451;19;20158;-77
2022/05/12 02:30:03;;;;;;;2.75;1.30;;;20.80;89.40;;;;;;7386560;19;20489;-78
2022/05/12 02:32:29;;;;;;;1.65;1.35;;;20.50;89.10;;;;;;7387625;19;20142;-79
2022/05/12 02:34:55;;;;;;;1.90;1.65;;;20.50;89.70;;;;;;7389090;19;20210;-78
2022/05/12 02:37:22;;;;;;;5.07;1.80;;;20.70;90.00;;;;;;7388745;19;20173;-77
2022/05/12 02:39:48;;;;;;;1.52;1.40;;;20.80;89.90;;;;;;7394819;19;20143;-77
2022/05/12 02:42:13;;;;;;;2.67;1.63;;;20.80;90.10;;;;;;7389380;19;20139;-79
2022/05/12 02:44:39;;;;;;;3.58;1.77;;;20.90;90.20;;;;;;7388853;19;20478;-79
2022/05/12 02:47:09;;;;;;;1.90;1.52;;;20.80;89.60;;;;;;7385712;19;20142;-74
2022/05/12 02:49:39;;;;;;;2.17;1.70;;;20.80;90.20;;;;;;7388497;19;20127;-78
2022/05/12 02:52:06;;;;;;;2.47;1.65;;;20.90;90.20;;;;;;7388290;19;20126;-78
2022/05/12 02:54:34;;;;;;;3.95;1.60;;;20.80;90.20;;;;;;7386742;19;20210;-78
2022/05/12 02:57:00;;;;;;;2.42;1.55;;;20.90;90.20;;;;;;7385858;19;20157;-76
2022/05/12 02:59:26;;;;;;;2.00;1.70;;;20.90;90.80;;;;;;7386500;19;20142;-78
2022/05/12 03:01:52;;;;;;;2.65;1.65;;;20.90;90.90;;;;;;7393083;19;20134;-76
2022/05/12 03:04:19;;;;;;;1.98;1.40;;;20.80;91.10;;;;;;7388897;19;20126;-78
2022/05/12 03:06:45;;;;;;;1.60;1.25;;;20.90;91.40;;;;;;7385473;19;20507;-75
2022/05/12 03:09:12;;;;;;;2.75;1.58;;;21.00;91.60;;;;;;7386624;19;20141;-78
2022/05/12 03:11:37;;;;;;;2.47;1.50;;;20.80;91.70;;;;;;7387952;19;20210;-78
2022/05/12 03:14:03;;;;;;;1.73;1.30;;;20.70;92.50;;;;;;7390524;19;20548;-78
2022/05/12 03:16:30;;;;;;;2.33;1.17;;;20.80;92.40;;;;;;7384300;19;20222;-75
2022/05/12 03:18:56;;;;;;;2.50;1.23;;;20.80;92.60;;;;;;7386978;19;20139;-78
2022/05/12 03:21:22;;;;;;;1.50;1.40;;;20.80;92.70;;;;;;7388205;19;20131;-75
2022/05/12 03:23:49;;;;;;;3.10;1.75;;;20.80;92.80;;;;;;7388047;19;20180;-79
2022/05/12 03:26:15;;;;;;;1.33;1.17;;;20.70;93.00;;;;;;7386906;19;20217;-75
2022/05/12 03:28:41;;;;;;;2.83;1.30;;;20.70;93.20;;;;;;7385271;19;20233;-76
2022/05/12 03:31:10;;;;;;;3.53;1.45;;;20.50;93.50;;;;;;7388914;19;20198;-79
2022/05/12 03:33:37;;;;;;;2.10;1.30;;;20.60;93.50;;;;;;7385813;19;20135;-80
2022/05/12 03:36:04;;;;;;;1.70;1.52;;;20.70;93.60;;;;;;7384625;19;20164;-75
2022/05/12 03:38:30;;;;;;;1.77;1.52;;;20.80;93.70;;;;;;7386637;19;20145;-76
2022/05/12 03:40:56;;;;;;;1.55;1.45;;;20.70;93.70;;;;;;7386730;19;20198;-78
2022/05/12 03:46:07;;;;;;;1.50;1.40;;;20.60;94.40;;;;;;7389987;19;20130;-78
2022/05/12 03:48:37;;;;;;;3.63;1.55;;;20.70;94.20;;;;;;7387525;19;20154;-78
2022/05/12 03:51:05;;;;;;;3.15;1.20;;;20.70;94.00;;;;;;7387184;19;20139;-75
2022/05/12 03:53:30;;;;;;;1.58;1.17;;;20.80;94.10;;;;;;7386773;19;20139;-75
2022/05/12 03:55:57;;;;;;;2.38;1.50;;;20.90;94.30;;;;;;7383775;19;20154;-77
2022/05/12 03:58:24;;;;;;;2.45;1.45;;;20.80;94.20;;;;;;7386406;19;20141;-78
2022/05/12 04:00:51;;;;;;;4.20;1.70;;;20.80;94.20;;;;;;7385021;19;20494;-75
2022/05/12 04:03:17;;;;;;;5.47;1.20;;;20.90;94.10;;;;;;7387734;19;20648;-77
2022/05/12 04:05:43;;;;;;;2.58;1.30;;;21.00;94.30;;;;;;7387273;19;20160;-74
2022/05/12 04:08:09;;;;;;;2.45;1.30;;;21.00;94.20;;;;;;7390780;19;20134;-75
2022/05/12 04:10:35;;;;;;;3.38;1.20;;;20.90;94.50;;;;;;7386662;19;20134;-74
2022/05/12 04:13:01;;;;;;;2.03;1.10;;;21.00;94.80;;;;;;7388053;19;20557;-75
2022/05/12 04:15:27;;;;;;;2.03;0.95;;;21.00;94.60;;;;;;7383397;19;20146;-75
2022/05/12 04:17:58;;;;;;;1.52;0.80;;;21.10;94.60;;;;;;7385727;19;20126;-75
2022/05/12 04:20:26;;;;;;;1.10;1.00;;;21.10;94.70;;;;;;7386501;19;20254;-77
2022/05/12 04:22:53;;;;;;;2.28;1.05;;;21.30;94.30;;;;;;7389689;19;20138;-78
2022/05/12 04:25:19;;;;;;;2.22;1.20;;;21.30;94.50;;;;;;7384345;19;20147;-78
2022/05/12 04:27:45;;;;;;;1.60;1.20;;;21.20;94.70;;;;;;7385700;19;20146;-75
2022/05/12 04:30:13;;;;;;;1.08;0.85;;;21.20;94.80;;;;;;7384704;19;20591;-79
2022/05/12 04:32:40;;;;;;;2.75;1.30;;;21.10;95.20;;;;;;7392877;19;20147;-78
2022/05/12 04:35:14;;;;;;;2.17;1.00;;;21.10;95.10;;;;;;7385189;19;20227;-76
2022/05/12 04:37:41;;;;;;;3.55;0.90;;;21.10;95.40;;;;;;7384436;19;20134;-76
2022/05/12 04:40:29;;;;;;;3.72;1.10;;;21.10;95.30;;;;;;7392314;19;20134;-76
2022/05/12 04:42:57;;;;;;;1.60;1.15;;;21.10;95.30;;;;;;7391522;19;20504;-78
2022/05/12 04:45:26;;;;;;;2.00;1.08;;;21.10;95.60;;;;;;7391045;19;20168;-78
2022/05/12 04:47:52;;;;;;;1.88;0.95;;;21.00;95.60;;;;;;7392157;19;20142;-76
2022/05/12 04:50:20;;;;;;;1.30;1.20;;;21.00;95.80;;;;;;7392610;19;20134;-76
2022/05/12 04:52:47;;;;;;;2.40;1.13;;;21.00;96.00;;;;;;7392278;19;20144;-76
2022/05/12 04:55:15;;;;;;;1.02;0.85;;;21.10;96.20;;;;;;7396389;19;20127;-79
2022/05/12 04:57:44;;;;;;;3.63;1.10;;;21.00;95.90;;;;;;7390526;19;20135;-80
2022/05/12 05:00:25;;;;;;;2.20;0.90;;;20.90;96.10;;;;;;7392524;19;20138;-77
2022/05/12 05:02:52;;;;;;;1.88;0.93;;;20.80;96.20;;;;;;7391959;19;20131;-75
2022/05/12 05:05:18;;;;;;;2.40;1.15;;;20.80;96.50;;;;;;7392087;19;20172;-81
2022/05/12 05:07:44;;;;;;;2.40;1.27;;;20.80;96.40;;;;;;7390159;19;20147;-76
2022/05/12 05:10:12;;;;;;;2.17;1.30;;;20.90;96.40;;;;;;7389982;19;20163;-82
2022/05/12 05:12:39;;;;;;;3.30;1.27;;;20.90;96.40;;;;;;7392757;19;20138;-76
2022/05/12 05:15:06;;;;;;;3.40;1.15;;;20.90;96.70;;;;;;7390822;19;20143;-80
2022/05/12 05:17:32;;;;;;;2.10;1.17;;;20.90;97.10;;;;;;7396833;19;20161;-80
2022/05/12 05:19:57;;;;;;;3.00;1.17;;;20.90;96.90;;;;;;7392466;19;20612;-79
2022/05/12 05:22:23;;;;;;;3.90;1.10;;;20.80;97.20;;;;;;7392427;19;20650;-76
2022/05/12 05:24:49;;;;;;;4.15;1.40;;;20.70;97.40;;;;;;7392530;19;20509;-75
2022/05/12 05:27:15;;;;;;;1.63;0.82;;;20.70;97.50;;;;;;7392303;19;20143;-75
2022/05/12 05:29:41;;;;;;;2.88;0.95;;;20.80;97.60;;;;;;7390532;19;20182;-76
2022/05/12 05:32:10;;;;;;;1.40;1.00;;;20.80;97.60;;;;;;7391980;19;20135;-78
2022/05/12 05:34:36;;;;;;;2.03;1.00;;;20.70;97.70;;;;;;7391334;19;20150;-76
2022/05/12 05:37:01;;;;;;;1.40;1.00;;;20.60;98.00;;;;;;7389963;19;20134;-75
2022/05/12 05:39:28;;;;;;;1.33;1.00;;;20.70;98.10;;;;;;7391174;19;20141;-76
2022/05/12 05:42:02;;;;;;;0.90;0.80;;;20.80;98.10;;;;;;7392972;19;20133;-76
2022/05/12 05:44:32;;;;;;;1.73;1.20;;;20.80;98.30;;;;;;7388137;19;20130;-78
2022/05/12 05:46:59;;;;;;;2.45;1.00;;;20.90;98.20;;;;;;7390393;19;20154;-79
2022/05/12 05:49:24;;;;;;;4.40;1.30;;;21.10;98.10;;;;;;7390262;19;20213;-77
2022/05/12 05:54:35;;;;;;;2.30;1.20;;;21.30;97.80;;;;;;7390622;19;20596;-77
2022/05/12 05:57:01;;;;;;;2.50;1.23;;;21.40;97.70;;;;;;7389001;19;20143;-76
2022/05/12 05:59:27;;;;;;;5.07;2.15;;;21.40;97.60;;;;;;7388254;19;20145;-77
2022/05/12 06:01:53;;;;;;;3.35;1.65;;;21.40;97.60;;;;;;7397486;19;20134;-76
2022/05/12 06:04:20;;;;;;;1.88;1.08;;;21.30;97.80;;;;;;7388615;19;20130;-77
2022/05/12 06:06:46;;;;;;;1.63;1.20;;;21.30;98.00;;;;;;7388661;19;20134;-76
2022/05/12 06:09:12;;;;;;;3.40;1.67;;;21.30;98.00;;;;;;7387737;19;20143;-76
2022/05/12 06:11:41;;;;;;;3.60;1.42;;;21.30;98.10;;;;;;7390505;19;20160;-76
2022/05/12 06:14:08;;;;;;;3.00;1.27;;;21.30;98.20;;;;;;7387502;19;20147;-76
2022/05/12 06:16:35;;;;;;;2.63;1.23;;;21.30;98.20;;;;;;7388558;19;20134;-76
2022/05/12 06:19:01;;;;;;;3.90;1.52;;;21.20;98.70;;;;;;7388084;19;20138;-75
2022/05/12 06:21:27;;;;;;;2.25;1.15;;;21.30;98.40;;;;;;7388330;19;20151;-76
2022/05/12 06:23:53;;;;;;;3.47;1.50;;;21.70;97.80;;;;;;7390301;19;20152;-76
2022/05/12 06:26:20;;;;;;;2.20;1.27;;;22.40;97.30;;;;;;7389692;19;20131;-74
2022/05/12 06:28:47;;;;;;;1.60;1.10;;;23.20;96.30;;;;;;7385678;19;20149;-73
2022/05/12 06:31:24;;;;;;;1.23;1.13;;;24.10;95.30;;;;;;7388703;19;20489;-83
2022/05/12 06:33:53;;;;;;;3.67;1.95;;;24.70;94.40;;;;;;7389787;19;20130;-80
2022/05/12 06:36:19;;;;;;;2.55;1.50;;;25.10;93.90;;;;;;7391764;19;20142;-74
2022/05/12 06:38:47;;;;;;;2.70;1.40;;;24.60;93.90;;;;;;7391371;19;20130;-73
2022/05/12 06:41:13;;;;;;;2.03;1.48;;;24.20;94.40;;;;;;7391936;19;20127;-78
2022/05/12 06:43:45;;;;;;;3.90;1.30;;;24.20;94.60;;;;;;7393413;19;20127;-76
2022/05/12 06:46:18;;;;;;;7.68;1.88;;;23.90;94.70;;;;;;7390417;19;20126;-75
2022/05/12 06:48:49;;;;;;;4.35;1.30;;;23.40;95.10;;;;;;7392346;19;20131;-80
2022/05/12 06:51:16;;;;;;;4.22;1.40;;;23.30;95.50;;;;;;7389078;19;20658;-78
2022/05/12 06:53:43;;;;;;;1.63;1.10;;;23.10;95.70;;;;;;7389879;19;20146;-74
2022/05/12 06:56:09;;;;;;;3.05;1.20;;;23.10;96.20;;;;;;7389682;19;20142;-76
2022/05/12 06:58:35;;;;;;;4.90;1.40;;;23.20;96.10;;;;;;7390973;19;20131;-83
2022/05/12 07:01:02;;;;;;;1.58;1.20;;;23.10;96.10;;;;;;7386604;19;20218;-82
2022/05/12 07:03:30;;;;;;;5.13;1.48;;;22.70;96.50;;;;;;7389617;19;20146;-73
2022/05/12 07:05:58;;;;;;;2.65;1.17;;;22.30;97.10;;;;;;7394628;19;20152;-79
2022/05/12 07:08:26;;;;;;;2.63;1.13;;;22.00;97.50;;;;;;7391249;19;20142;-82
2022/05/12 07:10:52;;;;;;;1.92;1.10;;;22.10;97.70;;;;;;7391145;19;20955;-78
2022/05/12 07:13:20;;;;;;;2.17;1.40;;;22.10;97.70;;;;;;7391005;19;20179;-79
2022/05/12 07:15:50;;;;;;;2.17;1.10;;;22.30;97.50;;;;;;7386749;19;20508;-81
2022/05/12 07:18:18;;;;;;;2.50;1.00;;;22.30;97.70;;;;;;7387836;19;20643;-78
2022/05/12 07:28:59;;;;;;;2.00;1.20;;;22.10;98.30;;;;;;7386987;19;20477;-79
2022/05/12 07:31:25;;;;;;;1.38;1.10;;;22.00;98.30;;;;;;7390115;19;20138;-84
2022/05/12 07:33:51;;;;;;;5.15;1.50;;;21.90;98.40;;;;;;7394674;19;20144;-79
2022/05/12 07:36:25;;;;;;;3.88;1.30;;;21.70;98.70;;;;;;7391373;19;20158;-79
2022/05/12 07:38:51;;;;;;;2.90;1.15;;;21.70;98.90;;;;;;7389531;19;20148;-80
2022/05/12 07:41:18;;;;;;;1.75;1.23;;;22.00;98.60;;;;;;7391058;19;20150;-82
2022/05/12 07:43:46;;;;;;;3.10;1.15;;;22.10;98.50;;;;;;7389437;19;20189;-82
2022/05/12 07:46:16;;;;;;;2.75;1.60;;;22.00;98.50;;;;;;7390381;19;20234;-82
2022/05/12 07:48:46;;;;;;;1.90;1.15;;;22.00;99.00;;;;;;7389577;19;20160;-81
2022/05/12 07:51:12;;;;;;;1.52;0.85;;;22.20;98.40;;;;;;7390209;19;20143;-77
2022/05/12 07:53:39;;;;;;;1.85;1.10;;;22.30;98.20;;;;;;7391194;19;20161;-82
2022/05/12 07:56:06;;;;;;;2.05;1.17;;;22.40;98.60;;;;;;7391841;19;20142;-80
2022/05/12 07:58:32;;;;;;;3.05;1.52;;;22.60;98.30;;;;;;7387160;19;20148;-82
2022/05/12 08:00:58;;;;;;;2.42;1.20;;;22.90;98.30;;;;;;7385664;19;20474;-77
2022/05/12 08:03:25;;;;;;;6.07;2.08;;;23.50;97.20;;;;;;7386812;19;20139;-81
2022/05/12 08:05:52;;;;;;;2.60;1.20;;;23.70;97.20;;;;;;7386750;19;20141;-78
2022/05/12 08:08:17;;;;;;;17.63;4.22;;;23.90;96.80;;;;;;7384069;19;20476;-77
2022/05/12 08:10:43;;;;;;;13.38;4.13;;;24.00;96.30;;;;;;7389828;19;20131;-80
2022/05/12 08:13:15;;;;;;;7.72;1.95;;;24.20;96.10;;;;;;7403659;19;20134;-82
2022/05/12 08:15:42;;;;;;;3.50;1.83;;;24.60;95.80;;;;;;7396886;19;20134;-83
2022/05/12 08:18:09;;;;;;;4.78;1.20;;;25.20;95.40;;;;;;7401114;19;20131;-82
2022/05/12 08:20:36;;;;;;;9.77;2.03;;;25.60;94.60;;;;;;7401050;19;20195;-77
2022/05/12 08:23:05;;;;;;;3.55;1.05;;;25.70;93.90;;;;;;7397326;19;20134;-83
2022/05/12 08:25:31;;;;;;;3.65;1.73;;;25.50;93.90;;;;;;7393655;19;20147;-82
2022/05/12 08:27:57;;;;;;;3.58;1.30;;;24.90;94.30;;;;;;7395065;19;20307;-78
2022/05/12 08:30:23;;;;;;;1.75;1.13;;;24.50;94.80;;;;;;7389627;19;20549;-77
2022/05/12 08:32:51;;;;;;;9.93;5.93;;;24.00;95.60;;;;;;7392951;19;20480;-77
2022/05/12 08:35:17;;;;;;;3.80;2.78;;;24.10;96.60;;;;;;7390673;19;20147;-80
2022/05/12 08:37:43;;;;;;;2.10;1.10;;;24.50;96.10;;;;;;7390660;19;20214;-80
2022/05/12 08:40:19;;;;;;;1.35;1.10;;;24.80;95.40;;;;;;7391801;19;20562;-77
2022/05/12 08:42:47;;;;;;;3.47;1.40;;;24.70;95.40;;;;;;7394177;19;20141;-77
2022/05/12 08:45:17;;;;;;;3.70;1.30;;;24.70;95.30;;;;;;7391978;19;20131;-81
2022/05/12 08:47:47;;;;;;;1.85;1.00;;;25.10;95.10;;;;;;7391188;19;20138;-77
2022/05/12 08:50:41;;;;;;;2.15;1.55;;;25.50;94.90;;;;;;7393040;19;20130;-81
2022/05/12 08:53:15;;;;;;;3.03;1.20;;;25.10;94.70;;;;;;7392241;19;20156;-83
2022/05/12 08:55:51;;;;;;;2.03;1.40;;;25.00;95.10;;;;;;7390185;19;20471;-81
2022/05/12 08:58:34;;;;;;;2.63;1.90;;;24.90;94.90;;;;;;7391072;19;20250;-81
2022/05/12 09:01:17;;;;;;;2.00;1.80;;;24.80;95.00;;;;;;7394635;19;20143;-78
2022/05/12 09:04:01;;;;;;;3.08;1.35;;;24.70;95.10;;;;;;7400036;19;20142;-81
2022/05/12 09:06:38;;;;;;;1.08;1.02;;;24.60;95.50;;;;;;7391820;19;20130;-77
2022/05/12 09:09:22;;;;;;;2.70;2.28;;;24.80;94.90;;;;;;7399345;19;20147;-80
2022/05/12 09:12:30;;;;;;;2.53;1.48;;;25.20;94.50;;;;;;7391742;19;20157;-84
2022/05/12 09:15:01;;;;;;;2.67;1.70;;;25.30;94.30;;;;;;7387606;19;20214;-80
2022/05/12 09:17:44;;;;;;;3.95;1.70;;;25.50;94.10;;;;;;7390079;19;20131;-78
2022/05/12 09:20:11;;;;;;;1.75;1.35;;;25.60;94.00;;;;;;7391945;19;20729;-81
2022/05/12 09:22:39;;;;;;;2.20;1.75;;;25.70;93.80;;;;;;7392946;19;20160;-78
2022/05/12 09:25:06;;;;;;;1.63;1.40;;;25.60;94.00;;;;;;7390944;19;20135;-81
2022/05/12 09:27:40;;;;;;;3.17;1.90;;;25.30;93.90;;;;;;7400419;19;20606;-79
2022/05/12 09:30:11;;;;;;;2.25;1.67;;;24.80;94.20;;;;;;7395176;19;20515;-78
2022/05/12 09:32:38;;;;;;;3.13;1.83;;;24.50;94.90;;;;;;7389721;19;20142;-82
2022/05/12 09:35:25;;;;;;;3.00;2.00;;;24.20;95.30;;;;;;7388630;19;20254;-77
2022/05/12 09:37:52;;;;;;;2.65;1.73;;;24.10;95.70;;;;;;7398666;19;20166;-79
2022/05/12 09:40:37;;;;;;;3.28;1.92;;;24.10;95.50;;;;;;7389530;19;20146;-78
2022/05/12 09:43:17;;;;;;;19.13;9.52;;;24.30;95.90;;;;;;7391117;19;20133;-81
2022/05/12 09:45:57;;;;;;;4.68;3.20;;;24.70;95.60;;;;;;7390412;19;20138;-79
2022/05/12 09:48:28;;;;;;;4.60;2.17;;;25.10;95.00;;;;;;7394035;19;20134;-78
2022/05/12 09:51:11;;;;;;;5.70;2.10;;;25.40;94.30;;;;;;7393571;19;20147;-78
2022/05/12 09:53:38;;;;;;;3.55;1.73;;;25.70;93.80;;;;;;7389088;19;20131;-80
2022/05/12 09:56:27;;;;;;;4.13;1.40;;;25.30;93.60;;;;;;7388649;19;20590;-81
2022/05/12 09:59:07;;;;;;;3.60;1.55;;;25.10;94.50;;;;;;7391213;19;20158;-80
2022/05/12 10:01:35;;;;;;;2.72;1.33;;;25.20;94.60;;;;;;7389537;19;20130;-81
2022/05/12 10:09:55;;;;;;;4.20;1.67;;;24.30;95.70;;;;;;7390507;19;20150;-78
2022/05/12 10:12:30;;;;;;;3.45;1.73;;;24.10;95.70;;;;;;7390965;19;20542;-82
2022/05/12 10:15:01;;;;;;;3.45;1.70;;;24.00;95.70;;;;;;7390031;19;20138;-81
2022/05/12 10:17:45;;;;;;;1.80;1.45;;;23.90;95.90;;;;;;7389092;19;20224;-78
2022/05/12 10:20:22;;;;;;;2.72;1.95;;;23.70;96.20;;;;;;7391861;19;20137;-77
2022/05/12 10:23:07;;;;;;;2.80;1.90;;;23.80;96.20;;;;;;7393597;19;20138;-77
2022/05/12 10:26:04;;;;;;;1.88;1.42;;;24.00;96.10;;;;;;7390451;19;20134;-79
2022/05/12 10:29:11;;;;;;;2.63;1.85;;;23.80;96.20;;;;;;7388612;19;20146;-75
2022/05/12 10:31:44;;;;;;;3.05;1.85;;;23.70;96.50;;;;;;7389735;19;20151;-81
2022/05/12 10:34:15;;;;;;;3.05;1.65;;;23.90;96.60;;;;;;7390358;19;20146;-76
2022/05/12 10:37:06;;;;;;;1.60;1.33;;;24.10;96.00;;;;;;7388860;19;20144;-79
2022/05/12 10:39:40;;;;;;;4.78;2.28;;;24.30;96.30;;;;;;7387765;19;20454;-79
2022/05/12 10:42:15;;;;;;;10.70;3.30;;;24.60;96.10;;;;;;7386337;19;20187;-80
2022/05/12 10:45:00;;;;;;;8.60;2.90;;;24.70;95.20;;;;;;7390978;19;20126;-82
2022/05/12 10:47:44;;;;;;;4.38;1.90;;;24.50;95.20;;;;;;7386321;19;20142;-80
2022/05/12 10:50:19;;;;;;;4.15;2.40;;;24.40;95.80;;;;;;7388085;19;20544;-81
2022/05/12 10:53:12;;;;;;;5.00;1.90;;;24.30;95.20;;;;;;7387200;19;20150;-78
2022/05/12 10:56:18;;;;;;;2.95;1.98;;;24.20;95.60;;;;;;7389832;19;20131;-78
2022/05/12 10:59:00;;;;;;;4.85;2.85;;;24.50;95.60;;;;;;7397016;19;20154;-77
2022/05/12 11:01:38;;;;;;;6.60;3.47;;;24.90;95.30;;;;;;7384558;19;20285;-80
2022/05/12 11:04:31;;;;;;;5.90;2.90;;;25.10;94.80;;;;;;7386240;19;20145;-78
2022/05/12 11:07:04;;;;;;;6.35;2.80;;;25.20;94.60;;;;;;7385736;19;20146;-81
2022/05/12 11:09:34;;;;;;;3.03;2.17;;;25.20;94.40;;;;;;7386174;19;20150;-81
2022/05/12 11:12:33;;;;;;;3.70;1.90;;;24.90;94.50;;;;;;7389067;19;20134;-78
2022/05/12 11:15:17;;;;;;;13.50;4.00;;;25.00;94.50;;;;;;7385263;19;20138;-81
2022/05/12 11:18:04;;;;;;;5.82;2.17;;;24.90;94.50;;;;;;7385173;19;20134;-81
2022/05/12 11:20:42;;;;;;;16.15;3.30;;;24.80;94.70;;;;;;7386843;19;20590;-76
2022/05/12 11:23:14;;;;;;;3.90;2.30;;;24.80;94.60;;;;;;7393338;19;20135;-80
2022/05/12 11:26:11;;;;;;;5.82;2.53;;;24.70;94.60;;;;;;7386738;19;20152;-81
2022/05/12 11:32:02;;;;;;;6.40;2.40;;;24.70;94.70;;;;;;7387426;19;20126;-79
2022/05/12 11:34:29;;;;;;;3.35;2.30;;;24.70;94.60;;;;;;7384984;19;20134;-76
2022/05/12 11:37:35;;;;;;;4.75;2.30;;;24.70;94.60;;;;;;7381799;19;20150;-76
2022/05/12 11:40:48;;;;;;;2.30;1.80;;;24.70;94.70;;;;;;7389096;19;20457;-82
2022/05/12 11:46:24;;;;;;;2.63;1.85;;;25.20;94.50;;;;;;7385978;19;20696;-80
2022/05/12 11:49:14;;;;;;;2.55;2.15;;;25.30;93.60;;;;;;7391688;19;20146;-79
2022/05/12 11:52:27;;;;;;;5.13;1.77;;;25.20;93.60;;;;;;7400518;19;20621;-77
2022/05/12 11:54:56;;;;;;;4.43;2.00;;;25.00;94.30;;;;;;7398026;19;20603;-82
2022/05/12 11:57:32;;;;;;;10.65;2.83;;;25.20;94.10;;;;;;7395193;19;20594;-81
2022/05/12 12:00:00;;;;;;;4.25;2.42;;;25.30;93.70;;;;;;7393189;19;20137;-79
2022/05/12 12:02:29;;;;;;;8.07;3.17;;;25.20;93.60;;;;;;7396323;19;20138;-79
2022/05/12 12:04:57;;;;;;;3.05;2.00;;;25.20;93.80;;;;;;7398687;19;20138;-75
2022/05/12 12:07:31;;;;;;;3.60;2.00;;;25.20;93.80;;;;;;7396381;19;20139;-78
2022/05/12 12:10:06;;;;;;;4.78;3.05;;;25.20;94.20;;;;;;7395231;19;20156;-75
2022/05/12 12:12:41;;;;;;;3.67;1.85;;;25.50;93.70;;;;;;7396368;19;20134;-74
2022/05/12 12:15:34;;;;;;;4.50;2.08;;;25.60;93.60;;;;;;7391547;19;20485;-74
2022/05/12 12:18:28;;;;;;;4.32;1.95;;;25.60;93.60;;;;;;7395442;19;20158;-75
2022/05/12 12:21:00;;;;;;;6.00;2.33;;;25.70;93.40;;;;;;7396624;19;20158;-83
2022/05/12 12:23:35;;;;;;;4.63;2.00;;;25.70;93.50;;;;;;7398440;19;20210;-77
2022/05/12 12:26:03;;;;;;;2.53;1.83;;;25.70;93.40;;;;;;7396463;19;20145;-76
2022/05/12 12:29:04;;;;;;;8.02;2.30;;;25.50;93.60;;;;;;7391283;19;20145;-82
2022/05/12 12:31:43;;;;;;;2.03;1.50;;;25.30;93.90;;;;;;7404973;19;20553;-79
2022/05/12 12:34:53;;;;;;;4.43;1.67;;;25.30;94.20;;;;;;7391871;19;20146;-75
2022/05/12 12:37:47;;;;;;;2.42;1.50;;;25.30;94.50;;;;;;7395040;19;20138;-75
2022/05/12 12:40:31;;;;;;;1.90;1.50;;;25.40;95.00;;;;;;7394550;19;20151;-82
2022/05/12 12:43:00;;;;;;;2.28;1.77;;;25.60;94.50;;;;;;7393444;19;20131;-76
2022/05/12 12:45:26;;;;;;;3.30;1.75;;;25.70;94.20;;;;;;7396900;19;20511;-83
2022/05/12 12:47:58;;;;;;;20.23;4.13;;;25.90;93.80;;;;;;7391702;19;20131;-78
2022/05/12 12:50:52;;;;;;;9.43;2.70;;;26.10;93.40;;;;;;7390768;19;20176;-74
2022/05/12 12:56:30;;;;;;;3.15;2.03;;;26.00;93.40;;;;;;7396067;19;20143;-75
2022/05/12 12:56:37;;;;;;;2.35;1.80;;;25.80;93.70;;;;;;7398917;19;20135;-84
2022/05/12 12:59:22;;;;;;;4.60;2.05;;;25.60;93.90;;;;;;7398731;19;20142;-75
2022/05/12 13:01:56;;;;;;;3.42;1.90;;;25.60;94.20;;;;;;7394644;19;20122;-75
2022/05/12 13:04:29;;;;;;;4.82;1.70;;;25.70;94.40;;;;;;7390827;19;20150;-84
2022/05/12 13:07:01;;;;;;;2.35;1.73;;;25.70;94.40;;;;;;7391236;19;20502;-81
2022/05/12 13:09:31;;;;;;;4.97;1.88;;;25.80;94.40;;;;;;7392870;19;20137;-75
2022/05/12 13:12:16;;;;;;;3.25;1.70;;;25.80;94.00;;;;;;7390860;19;20142;-86
2022/05/12 13:14:44;;;;;;;4.95;1.95;;;25.50;94.30;;;;;;7391978;19;20142;-84
2022/05/12 13:17:39;;;;;;;5.10;1.75;;;25.40;94.60;;;;;;7393831;19;20130;-76
2022/05/12 13:20:18;;;;;;;4.80;2.20;;;25.30;94.80;;;;;;7388206;19;20461;-82
2022/05/12 13:22:54;;;;;;;3.25;1.88;;;25.30;95.00;;;;;;7393574;19;20596;-83
2022/05/12 13:25:26;;;;;;;2.00;1.52;;;25.30;95.00;;;;;;7393281;19;20613;-85
2022/05/12 13:27:53;;;;;;;5.20;2.13;;;25.30;95.10;;;;;;7390612;19;20145;-76
2022/05/12 13:30:25;;;;;;;5.30;2.03;;;25.20;95.20;;;;;;7386287;19;20678;-74
2022/05/12 13:33:01;;;;;;;2.35;1.70;;;25.00;95.30;;;;;;7392852;19;20742;-78
2022/05/12 13:35:29;;;;;;;2.80;1.95;;;25.10;95.40;;;;;;7387885;19;20165;-79